sensor_id;sensor_type;location;lat;lon;timestamp;P1;durP1;ratioP1;P2;durP2;ratioP2
19863;SDS011;10094;48.820;9.226;2022-08-19T00:00:50;15.43;;;13.88;;
19863;SDS011;10094;48.820;9.226;2022-08-19T00:07:33;14.85;;;13.48;;
19863;SDS011;10094;48.820;9.226;2022-08-19T00:14:16;14.20;;;12.90;;
19863;SDS011;10094;48.820;9.226;2022-08-19T00:20:59;14.68;;;13.23;;
19863;SDS011;10094;48.820;9.226;2022-08-19T00:27:42;14.80;;;13.30;;
19863;SDS011;10094;48.820;9.226;2022-08-19T00:34:25;15.43;;;14.02;;
19863;SDS011;10094;48.820;9.226;2022-08-19T00:41:14;14.48;;;13.13;;
19863;SDS011;10094;48.820;9.226;2022-08-19T00:47:59;15.85;;;13.07;;
19863;SDS011;10094;48.820;9.226;2022-08-19T00:54:45;15.43;;;13.60;;
19863;SDS011;10094;48.820;9.226;2022-08-19T01:01:33;15.30;;;13.80;;
19863;SDS011;10094;48.820;9.226;2022-08-19T01:08:17;14.50;;;13.05;;
19863;SDS011;10094;48.820;9.226;2022-08-19T01:15:00;15.00;;;13.40;;
19863;SDS011;10094;48.820;9.226;2022-08-19T01:21:46;14.55;;;13.05;;
19863;SDS011;10094;48.820;9.226;2022-08-19T01:28:35;15.23;;;13.63;;
19863;SDS011;10094;48.820;9.226;2022-08-19T01:35:21;15.50;;;13.90;;
19863;SDS011;10094;48.820;9.226;2022-08-19T01:42:05;16.80;;;15.15;;
19863;SDS011;10094;48.820;9.226;2022-08-19T01:48:52;17.92;;;14.57;;
19863;SDS011;10094;48.820;9.226;2022-08-19T01:55:36;16.65;;;14.85;;
19863;SDS011;10094;48.820;9.226;2022-08-19T02:02:21;17.70;;;15.05;;
19863;SDS011;10094;48.820;9.226;2022-08-19T02:09:05;16.90;;;15.13;;
19863;SDS011;10094;48.820;9.226;2022-08-19T02:15:48;17.85;;;15.65;;
19863;SDS011;10094;48.820;9.226;2022-08-19T02:22:30;17.73;;;15.93;;
19863;SDS011;10094;48.820;9.226;2022-08-19T02:29:13;18.38;;;15.95;;
19863;SDS011;10094;48.820;9.226;2022-08-19T02:35:55;19.08;;;16.90;;
19863;SDS011;10094;48.820;9.226;2022-08-19T02:42:38;22.17;;;18.05;;
19863;SDS011;10094;48.820;9.226;2022-08-19T02:49:22;19.38;;;16.88;;
19863;SDS011;10094;48.820;9.226;2022-08-19T02:56:06;20.23;;;18.15;;
19863;SDS011;10094;48.820;9.226;2022-08-19T03:02:49;20.95;;;18.85;;
19863;SDS011;10094;48.820;9.226;2022-08-19T03:09:32;21.83;;;19.52;;
19863;SDS011;10094;48.820;9.226;2022-08-19T03:16:14;23.20;;;19.90;;
19863;SDS011;10094;48.820;9.226;2022-08-19T03:22:58;22.98;;;20.63;;
19863;SDS011;10094;48.820;9.226;2022-08-19T03:29:40;25.00;;;21.10;;
19863;SDS011;10094;48.820;9.226;2022-08-19T03:36:25;21.50;;;18.73;;
19863;SDS011;10094;48.820;9.226;2022-08-19T03:43:10;23.20;;;20.83;;
19863;SDS011;10094;48.820;9.226;2022-08-19T03:49:52;23.92;;;21.25;;
19863;SDS011;10094;48.820;9.226;2022-08-19T03:56:37;24.30;;;21.67;;
19863;SDS011;10094;48.820;9.226;2022-08-19T04:03:20;27.80;;;23.55;;
19863;SDS011;10094;48.820;9.226;2022-08-19T04:10:03;25.88;;;23.17;;
19863;SDS011;10094;48.820;9.226;2022-08-19T04:16:46;25.58;;;22.75;;
19863;SDS011;10094;48.820;9.226;2022-08-19T04:23:30;25.42;;;21.52;;
19863;SDS011;10094;48.820;9.226;2022-08-19T04:30:14;24.73;;;22.13;;
19863;SDS011;10094;48.820;9.226;2022-08-19T04:36:57;26.05;;;23.27;;
19863;SDS011;10094;48.820;9.226;2022-08-19T04:43:40;27.00;;;23.77;;
19863;SDS011;10094;48.820;9.226;2022-08-19T04:50:23;28.05;;;23.02;;
19863;SDS011;10094;48.820;9.226;2022-08-19T04:57:07;27.23;;;23.70;;
19863;SDS011;10094;48.820;9.226;2022-08-19T05:03:52;28.80;;;24.30;;
19863;SDS011;10094;48.820;9.226;2022-08-19T05:10:37;26.17;;;23.00;;
19863;SDS011;10094;48.820;9.226;2022-08-19T05:17:21;26.02;;;23.48;;
19863;SDS011;10094;48.820;9.226;2022-08-19T05:24:19;25.42;;;22.92;;
19863;SDS011;10094;48.820;9.226;2022-08-19T05:31:02;28.48;;;24.08;;
19863;SDS011;10094;48.820;9.226;2022-08-19T05:37:45;28.05;;;22.77;;
19863;SDS011;10094;48.820;9.226;2022-08-19T05:44:28;26.20;;;23.45;;
19863;SDS011;10094;48.820;9.226;2022-08-19T05:51:16;25.98;;;23.30;;
19863;SDS011;10094;48.820;9.226;2022-08-19T05:57:58;25.70;;;22.98;;
19863;SDS011;10094;48.820;9.226;2022-08-19T06:04:43;26.55;;;23.35;;
19863;SDS011;10094;48.820;9.226;2022-08-19T06:11:42;25.30;;;22.40;;
19863;SDS011;10094;48.820;9.226;2022-08-19T06:18:37;25.27;;;22.67;;
19863;SDS011;10094;48.820;9.226;2022-08-19T06:25:19;27.10;;;24.38;;
19863;SDS011;10094;48.820;9.226;2022-08-19T06:32:02;25.85;;;23.15;;
19863;SDS011;10094;48.820;9.226;2022-08-19T06:38:45;29.15;;;23.50;;
19863;SDS011;10094;48.820;9.226;2022-08-19T06:45:28;26.42;;;23.63;;
19863;SDS011;10094;48.820;9.226;2022-08-19T06:52:18;27.35;;;24.45;;
19863;SDS011;10094;48.820;9.226;2022-08-19T06:59:03;25.88;;;22.98;;
19863;SDS011;10094;48.820;9.226;2022-08-19T07:05:50;28.33;;;24.42;;
19863;SDS011;10094;48.820;9.226;2022-08-19T07:12:32;25.73;;;22.73;;
19863;SDS011;10094;48.820;9.226;2022-08-19T07:19:17;26.00;;;23.33;;
19863;SDS011;10094;48.820;9.226;2022-08-19T07:26:12;27.10;;;24.08;;
19863;SDS011;10094;48.820;9.226;2022-08-19T07:33:08;24.20;;;21.75;;
19863;SDS011;10094;48.820;9.226;2022-08-19T07:39:51;24.50;;;21.65;;
19863;SDS011;10094;48.820;9.226;2022-08-19T07:46:34;26.27;;;21.88;;
19863;SDS011;10094;48.820;9.226;2022-08-19T07:53:19;22.20;;;19.90;;
19863;SDS011;10094;48.820;9.226;2022-08-19T08:00:03;22.65;;;20.45;;
19863;SDS011;10094;48.820;9.226;2022-08-19T08:06:52;25.65;;;22.02;;
19863;SDS011;10094;48.820;9.226;2022-08-19T08:13:56;24.85;;;22.30;;
19863;SDS011;10094;48.820;9.226;2022-08-19T08:20:45;24.75;;;21.75;;
19863;SDS011;10094;48.820;9.226;2022-08-19T08:27:27;22.35;;;19.80;;
19863;SDS011;10094;48.820;9.226;2022-08-19T08:34:13;23.85;;;21.35;;
19863;SDS011;10094;48.820;9.226;2022-08-19T08:40:57;23.63;;;21.25;;
19863;SDS011;10094;48.820;9.226;2022-08-19T08:47:48;24.00;;;21.48;;
19863;SDS011;10094;48.820;9.226;2022-08-19T08:54:38;22.33;;;19.98;;
19863;SDS011;10094;48.820;9.226;2022-08-19T09:01:36;21.70;;;19.60;;
19863;SDS011;10094;48.820;9.226;2022-08-19T09:08:23;22.10;;;19.27;;
19863;SDS011;10094;48.820;9.226;2022-08-19T09:15:22;20.00;;;18.10;;
19863;SDS011;10094;48.820;9.226;2022-08-19T09:22:17;21.25;;;19.05;;
19863;SDS011;10094;48.820;9.226;2022-08-19T09:29:07;20.02;;;18.08;;
19863;SDS011;10094;48.820;9.226;2022-08-19T09:35:50;20.73;;;18.58;;
19863;SDS011;10094;48.820;9.226;2022-08-19T09:42:49;19.58;;;17.40;;
19863;SDS011;10094;48.820;9.226;2022-08-19T09:49:33;17.95;;;16.10;;
19863;SDS011;10094;48.820;9.226;2022-08-19T09:56:17;18.88;;;16.15;;
19863;SDS011;10094;48.820;9.226;2022-08-19T10:03:00;17.38;;;15.68;;
19863;SDS011;10094;48.820;9.226;2022-08-19T10:09:44;15.80;;;14.13;;
19863;SDS011;10094;48.820;9.226;2022-08-19T10:16:27;14.90;;;13.50;;
19863;SDS011;10094;48.820;9.226;2022-08-19T10:23:11;15.85;;;14.25;;
19863;SDS011;10094;48.820;9.226;2022-08-19T10:29:54;14.23;;;12.70;;
19863;SDS011;10094;48.820;9.226;2022-08-19T10:36:39;14.02;;;12.70;;
19863;SDS011;10094;48.820;9.226;2022-08-19T10:43:37;16.50;;;12.20;;
19863;SDS011;10094;48.820;9.226;2022-08-19T10:50:20;14.43;;;11.95;;
19863;SDS011;10094;48.820;9.226;2022-08-19T10:57:22;14.13;;;11.32;;
19863;SDS011;10094;48.820;9.226;2022-08-19T11:04:30;12.18;;;10.10;;
19863;SDS011;10094;48.820;9.226;2022-08-19T11:11:14;10.52;;;9.45;;
19863;SDS011;10094;48.820;9.226;2022-08-19T11:17:56;10.13;;;8.43;;
19863;SDS011;10094;48.820;9.226;2022-08-19T11:24:38;9.75;;;8.48;;
19863;SDS011;10094;48.820;9.226;2022-08-19T11:31:25;8.93;;;8.02;;
19863;SDS011;10094;48.820;9.226;2022-08-19T11:38:10;8.95;;;8.05;;
19863;SDS011;10094;48.820;9.226;2022-08-19T11:44:53;9.57;;;7.65;;
19863;SDS011;10094;48.820;9.226;2022-08-19T11:51:35;8.60;;;7.68;;
19863;SDS011;10094;48.820;9.226;2022-08-19T11:58:18;9.60;;;7.93;;
19863;SDS011;10094;48.820;9.226;2022-08-19T12:05:00;10.40;;;8.55;;
19863;SDS011;10094;48.820;9.226;2022-08-19T12:11:52;8.85;;;8.02;;
19863;SDS011;10094;48.820;9.226;2022-08-19T12:18:35;11.60;;;8.88;;
19863;SDS011;10094;48.820;9.226;2022-08-19T12:25:17;10.32;;;8.18;;
19863;SDS011;10094;48.820;9.226;2022-08-19T12:32:03;24.00;;;19.25;;
19863;SDS011;10094;48.820;9.226;2022-08-19T12:38:45;23.27;;;19.48;;
19863;SDS011;10094;48.820;9.226;2022-08-19T12:45:28;24.60;;;21.48;;
19863;SDS011;10094;48.820;9.226;2022-08-19T12:52:11;27.92;;;24.92;;
19863;SDS011;10094;48.820;9.226;2022-08-19T12:58:57;27.63;;;24.73;;
19863;SDS011;10094;48.820;9.226;2022-08-19T13:05:39;25.92;;;23.30;;
19863;SDS011;10094;48.820;9.226;2022-08-19T13:12:22;29.45;;;26.38;;
19863;SDS011;10094;48.820;9.226;2022-08-19T13:19:08;30.00;;;26.73;;
19863;SDS011;10094;48.820;9.226;2022-08-19T13:25:57;29.00;;;25.92;;
19863;SDS011;10094;48.820;9.226;2022-08-19T13:32:41;28.67;;;25.60;;
19863;SDS011;10094;48.820;9.226;2022-08-19T13:39:42;28.48;;;25.23;;
19863;SDS011;10094;48.820;9.226;2022-08-19T13:46:26;29.60;;;26.40;;
19863;SDS011;10094;48.820;9.226;2022-08-19T13:53:11;31.63;;;26.88;;
19863;SDS011;10094;48.820;9.226;2022-08-19T13:59:53;34.42;;;30.52;;
19863;SDS011;10094;48.820;9.226;2022-08-19T14:06:36;35.00;;;29.10;;
19863;SDS011;10094;48.820;9.226;2022-08-19T14:13:19;37.20;;;33.15;;
19863;SDS011;10094;48.820;9.226;2022-08-19T14:20:04;37.78;;;33.67;;
19863;SDS011;10094;48.820;9.226;2022-08-19T14:26:52;38.08;;;33.50;;
19863;SDS011;10094;48.820;9.226;2022-08-19T14:33:34;40.63;;;34.83;;
19863;SDS011;10094;48.820;9.226;2022-08-19T14:40:17;39.40;;;33.95;;
19863;SDS011;10094;48.820;9.226;2022-08-19T14:47:03;37.78;;;33.63;;
19863;SDS011;10094;48.820;9.226;2022-08-19T14:53:46;36.25;;;32.50;;
19863;SDS011;10094;48.820;9.226;2022-08-19T15:00:31;39.15;;;34.70;;
19863;SDS011;10094;48.820;9.226;2022-08-19T15:07:17;35.15;;;31.45;;
19863;SDS011;10094;48.820;9.226;2022-08-19T15:14:00;32.53;;;29.00;;
19863;SDS011;10094;48.820;9.226;2022-08-19T15:20:43;32.15;;;28.88;;
19863;SDS011;10094;48.820;9.226;2022-08-19T15:27:27;29.58;;;26.58;;
19863;SDS011;10094;48.820;9.226;2022-08-19T15:34:10;28.88;;;26.05;;
19863;SDS011;10094;48.820;9.226;2022-08-19T15:40:52;28.75;;;25.83;;
19863;SDS011;10094;48.820;9.226;2022-08-19T15:47:35;25.45;;;22.95;;
19863;SDS011;10094;48.820;9.226;2022-08-19T15:54:19;27.45;;;24.67;;
19863;SDS011;10094;48.820;9.226;2022-08-19T16:01:05;24.55;;;22.05;;
19863;SDS011;10094;48.820;9.226;2022-08-19T16:08:08;26.00;;;23.17;;
19863;SDS011;10094;48.820;9.226;2022-08-19T16:14:51;22.95;;;20.65;;
19863;SDS011;10094;48.820;9.226;2022-08-19T16:21:34;22.70;;;20.45;;
19863;SDS011;10094;48.820;9.226;2022-08-19T16:28:21;19.95;;;18.05;;
19863;SDS011;10094;48.820;9.226;2022-08-19T16:35:04;20.45;;;18.30;;
19863;SDS011;10094;48.820;9.226;2022-08-19T16:41:48;21.95;;;19.85;;
19863;SDS011;10094;48.820;9.226;2022-08-19T16:48:31;21.95;;;19.60;;
19863;SDS011;10094;48.820;9.226;2022-08-19T16:55:14;21.60;;;19.38;;
19863;SDS011;10094;48.820;9.226;2022-08-19T17:01:57;22.98;;;20.55;;
19863;SDS011;10094;48.820;9.226;2022-08-19T17:08:40;21.75;;;19.65;;
19863;SDS011;10094;48.820;9.226;2022-08-19T17:15:28;21.13;;;19.08;;
19863;SDS011;10094;48.820;9.226;2022-08-19T17:22:13;21.05;;;19.08;;
19863;SDS011;10094;48.820;9.226;2022-08-19T17:28:55;21.25;;;19.02;;
19863;SDS011;10094;48.820;9.226;2022-08-19T17:35:40;22.08;;;18.95;;
19863;SDS011;10094;48.820;9.226;2022-08-19T17:42:24;23.52;;;21.23;;
19863;SDS011;10094;48.820;9.226;2022-08-19T17:49:07;24.70;;;22.30;;
19863;SDS011;10094;48.820;9.226;2022-08-19T17:55:49;26.33;;;23.63;;
19863;SDS011;10094;48.820;9.226;2022-08-19T18:02:32;24.25;;;21.77;;
19863;SDS011;10094;48.820;9.226;2022-08-19T18:09:15;24.08;;;21.58;;
19863;SDS011;10094;48.820;9.226;2022-08-19T18:15:57;23.63;;;21.13;;
19863;SDS011;10094;48.820;9.226;2022-08-19T18:22:41;23.90;;;21.27;;
19863;SDS011;10094;48.820;9.226;2022-08-19T18:29:25;25.83;;;22.08;;
19863;SDS011;10094;48.820;9.226;2022-08-19T18:36:08;26.95;;;24.08;;
19863;SDS011;10094;48.820;9.226;2022-08-19T18:42:50;25.63;;;22.98;;
19863;SDS011;10094;48.820;9.226;2022-08-19T18:49:51;27.75;;;24.83;;
19863;SDS011;10094;48.820;9.226;2022-08-19T18:56:33;26.27;;;23.50;;
19863;SDS011;10094;48.820;9.226;2022-08-19T19:03:18;26.45;;;23.75;;
19863;SDS011;10094;48.820;9.226;2022-08-19T19:10:00;26.38;;;23.67;;
19863;SDS011;10094;48.820;9.226;2022-08-19T19:16:44;29.02;;;26.13;;
19863;SDS011;10094;48.820;9.226;2022-08-19T19:23:29;29.08;;;25.92;;
19863;SDS011;10094;48.820;9.226;2022-08-19T19:30:12;29.00;;;26.00;;
19863;SDS011;10094;48.820;9.226;2022-08-19T19:36:54;27.83;;;24.85;;
19863;SDS011;10094;48.820;9.226;2022-08-19T19:43:37;29.55;;;26.35;;
19863;SDS011;10094;48.820;9.226;2022-08-19T19:50:22;29.15;;;26.05;;
19863;SDS011;10094;48.820;9.226;2022-08-19T19:57:04;29.48;;;25.42;;
19863;SDS011;10094;48.820;9.226;2022-08-19T20:03:47;29.02;;;24.95;;
19863;SDS011;10094;48.820;9.226;2022-08-19T20:10:30;29.30;;;26.27;;
19863;SDS011;10094;48.820;9.226;2022-08-19T20:17:13;29.52;;;26.73;;
19863;SDS011;10094;48.820;9.226;2022-08-19T20:23:57;30.05;;;26.92;;
19863;SDS011;10094;48.820;9.226;2022-08-19T20:30:50;28.98;;;26.17;;
19863;SDS011;10094;48.820;9.226;2022-08-19T20:37:33;29.02;;;25.92;;
19863;SDS011;10094;48.820;9.226;2022-08-19T20:44:15;30.20;;;27.20;;
19863;SDS011;10094;48.820;9.226;2022-08-19T20:50:58;28.52;;;25.27;;
19863;SDS011;10094;48.820;9.226;2022-08-19T20:57:40;27.42;;;24.58;;
19863;SDS011;10094;48.820;9.226;2022-08-19T21:04:23;26.65;;;24.02;;
19863;SDS011;10094;48.820;9.226;2022-08-19T21:11:05;28.00;;;25.10;;
19863;SDS011;10094;48.820;9.226;2022-08-19T21:17:49;27.27;;;24.70;;
19863;SDS011;10094;48.820;9.226;2022-08-19T21:24:32;27.92;;;25.13;;
19863;SDS011;10094;48.820;9.226;2022-08-19T21:31:15;24.77;;;22.20;;
19863;SDS011;10094;48.820;9.226;2022-08-19T21:37:58;22.00;;;19.90;;
19863;SDS011;10094;48.820;9.226;2022-08-19T21:44:41;20.10;;;18.00;;
19863;SDS011;10094;48.820;9.226;2022-08-19T21:51:26;20.48;;;18.33;;
19863;SDS011;10094;48.820;9.226;2022-08-19T21:58:09;17.80;;;16.02;;
19863;SDS011;10094;48.820;9.226;2022-08-19T22:04:52;7.38;;;6.68;;
19863;SDS011;10094;48.820;9.226;2022-08-19T22:11:35;7.47;;;3.50;;
19863;SDS011;10094;48.820;9.226;2022-08-19T22:18:18;2.95;;;2.65;;
19863;SDS011;10094;48.820;9.226;2022-08-19T22:25:05;3.05;;;2.40;;
19863;SDS011;10094;48.820;9.226;2022-08-19T22:31:50;2.33;;;2.03;;
19863;SDS011;10094;48.820;9.226;2022-08-19T22:38:39;4.10;;;2.17;;
19863;SDS011;10094;48.820;9.226;2022-08-19T22:45:21;3.97;;;2.80;;
19863;SDS011;10094;48.820;9.226;2022-08-19T22:52:04;3.03;;;2.72;;
19863;SDS011;10094;48.820;9.226;2022-08-19T22:58:58;2.88;;;2.00;;
19863;SDS011;10094;48.820;9.226;2022-08-19T23:05:40;2.80;;;2.53;;
19863;SDS011;10094;48.820;9.226;2022-08-19T23:19:13;2.25;;;2.05;;
19863;SDS011;10094;48.820;9.226;2022-08-19T23:25:56;2.40;;;2.10;;
19863;SDS011;10094;48.820;9.226;2022-08-19T23:32:39;3.78;;;1.98;;
19863;SDS011;10094;48.820;9.226;2022-08-19T23:39:21;2.40;;;2.20;;
19863;SDS011;10094;48.820;9.226;2022-08-19T23:46:06;4.57;;;2.03;;
19863;SDS011;10094;48.820;9.226;2022-08-19T23:52:52;2.58;;;1.83;;
19863;SDS011;10094;48.820;9.226;2022-08-19T23:59:36;1.70;;;1.60;;
